Time;durP1;ratioP1;P1;durP2;ratioP2;P2;SDS_P1;SDS_P2;PMS_P1;PMS_P2;Temp;Humidity;BMP_temperature;BMP_pressure;BME280_temperature;BME280_humidity;BME280_pressure;Samples;Min_cycle;Max_cycle;Signal;HPM_P1;HPM_P2
2022/09/30 00:01:24;;;;;;;5.28;4.60;;;;;;;11.86;54.18;100671.78;5050977;28;20082;-63
2022/09/30 00:03:56;;;;;;;11.00;4.57;;;;;;;11.82;54.05;100678.38;5051313;28;20396;-62
2022/09/30 00:06:25;;;;;;;4.93;4.45;;;;;;;11.77;54.27;100677.88;5050586;28;20049;-63
2022/09/30 00:08:52;;;;;;;5.03;4.53;;;;;;;11.73;54.10;100673.69;5050933;28;20490;-63
2022/09/30 00:11:22;;;;;;;4.90;4.38;;;;;;;11.70;54.16;100677.50;5050865;28;20495;-63
2022/09/30 00:13:51;;;;;;;6.28;5.50;;;;;;;11.67;54.08;100682.25;5050971;28;20052;-63
2022/09/30 00:16:22;;;;;;;6.88;5.30;;;;;;;11.64;54.04;100682.50;5050606;28;20041;-63
2022/09/30 00:18:49;;;;;;;7.25;6.53;;;;;;;11.61;54.22;100688.97;5051047;28;20072;-64
2022/09/30 00:21:16;;;;;;;8.95;7.50;;;;;;;11.62;54.51;100689.81;5050977;28;20045;-63
2022/09/30 00:23:47;;;;;;;8.82;7.93;;;;;;;11.60;54.35;100695.31;5051001;28;20098;-64
2022/09/30 00:26:16;;;;;;;11.18;8.23;;;;;;;11.60;54.24;100691.78;5050219;28;20041;-64
2022/09/30 00:28:47;;;;;;;7.90;7.10;;;;;;;11.59;54.26;100690.91;5053592;28;20499;-63
2022/09/30 00:31:16;;;;;;;12.63;8.10;;;;;;;11.57;54.55;100694.72;5054831;28;20106;-64
2022/09/30 00:34:05;;;;;;;8.55;7.70;;;;;;;11.55;54.34;100694.81;5054976;28;20352;-64
2022/09/30 00:36:50;;;;;;;9.27;8.38;;;;;;;11.53;54.62;100691.41;5054470;28;20059;-63
2022/09/30 00:39:21;;;;;;;9.85;8.77;;;;;;;11.52;54.37;100689.69;5055064;28;20092;-63
2022/09/30 00:41:50;;;;;;;12.00;9.57;;;;;;;11.50;54.39;100696.16;5054566;28;20498;-63
2022/09/30 00:45:03;;;;;;;11.73;9.95;;;;;;;11.45;54.54;100697.38;5054923;28;20105;-64
2022/09/30 00:47:40;;;;;;;11.65;10.30;;;;;;;11.45;54.68;100697.38;5031281;28;20451;-63
2022/09/30 00:50:44;;;;;;;12.73;9.75;;;;;;;11.46;54.71;100692.84;5031877;28;20103;-64
2022/09/30 00:53:33;;;;;;;11.18;9.77;;;;;;;11.45;54.41;100694.69;5034297;28;20062;-64
2022/09/30 00:56:23;;;;;;;11.93;9.60;;;;;;;11.45;54.59;100696.50;5041702;28;20056;-63
2022/09/30 00:59:00;;;;;;;11.45;9.65;;;;;;;11.41;54.59;100687.81;5054555;28;20045;-63
2022/09/30 01:01:26;;;;;;;11.55;8.88;;;;;;;11.37;54.36;100686.34;5054565;28;20037;-63
2022/09/30 01:04:00;;;;;;;10.27;8.88;;;;;;;11.33;54.62;100694.75;5054266;28;20045;-64
2022/09/30 01:06:27;;;;;;;9.93;8.38;;;;;;;11.32;54.54;100703.81;5053919;28;20056;-63
2022/09/30 01:08:54;;;;;;;10.10;8.65;;;;;;;11.32;54.62;100701.13;5054356;28;20577;-63
2022/09/30 01:11:20;;;;;;;12.63;9.77;;;;;;;11.31;54.47;100696.72;5054179;28;20079;-64
2022/09/30 01:13:54;;;;;;;9.73;8.68;;;;;;;11.31;54.55;100697.56;5053979;28;20080;-64
2022/09/30 01:16:42;;;;;;;9.98;8.65;;;;;;;11.31;54.77;100697.56;5053913;28;20052;-63
2022/09/30 01:19:39;;;;;;;11.88;8.60;;;;;;;11.30;54.73;100698.53;5054284;28;20110;-63
2022/09/30 01:22:40;;;;;;;9.15;8.02;;;;;;;11.31;54.51;100694.03;5053998;28;20106;-63
2022/09/30 01:25:32;;;;;;;10.40;8.30;;;;;;;11.29;54.52;100701.34;5053746;28;20052;-63
2022/09/30 01:28:18;;;;;;;11.00;8.52;;;;;;;11.29;54.45;100698.66;5053932;28;20396;-63
2022/09/30 01:31:22;;;;;;;10.52;9.40;;;;;;;11.25;54.68;100703.41;5053680;28;20053;-63
2022/09/30 01:34:01;;;;;;;11.95;8.80;;;;;;;11.22;54.40;100697.41;5053960;28;20076;-63
2022/09/30 01:36:40;;;;;;;11.93;9.55;;;;;;;11.16;54.40;100696.06;5033961;28;20179;-63
2022/09/30 01:39:20;;;;;;;11.98;8.68;;;;;;;11.14;54.54;100695.28;5033191;28;20046;-63
2022/09/30 01:42:09;;;;;;;11.40;9.57;;;;;;;11.10;54.45;100700.03;5033809;28;20029;-64
2022/09/30 01:44:41;;;;;;;12.57;8.75;;;;;;;11.08;54.51;100701.97;5038971;28;20032;-64
2022/09/30 01:47:26;;;;;;;10.65;8.77;;;;;;;11.06;54.58;100700.38;5053488;28;20037;-63
2022/09/30 01:50:03;;;;;;;11.67;9.70;;;;;;;11.03;54.67;100697.94;5053738;28;20064;-63
2022/09/30 01:52:52;;;;;;;11.32;9.43;;;;;;;10.98;54.84;100687.53;5053566;28;20650;-64
2022/09/30 01:55:37;;;;;;;9.75;8.75;;;;;;;10.95;54.88;100684.22;5053509;28;20086;-63
2022/09/30 01:58:50;;;;;;;12.27;9.65;;;;;;;10.91;54.71;100690.78;5053343;28;20503;-64
2022/09/30 02:01:26;;;;;;;9.80;8.52;;;;;;;10.91;54.91;100691.66;5030858;28;20194;-63
2022/09/30 02:03:59;;;;;;;12.13;9.88;;;;;;;10.90;54.87;100694.44;5030178;28;20053;-64
2022/09/30 02:06:32;;;;;;;9.70;8.30;;;;;;;10.88;54.90;100697.25;5032059;28;20451;-63
2022/09/30 02:09:10;;;;;;;10.73;9.10;;;;;;;10.87;54.98;100691.97;5033556;28;20041;-64
2022/09/30 02:11:38;;;;;;;13.02;9.43;;;;;;;10.87;55.01;100694.69;5045575;28;20036;-63
2022/09/30 02:14:25;;;;;;;11.30;9.32;;;;;;;10.85;54.85;100691.25;5053145;28;20049;-63
2022/09/30 02:16:58;;;;;;;10.93;9.43;;;;;;;10.86;54.89;100690.28;5052801;28;20407;-63
2022/09/30 02:19:34;;;;;;;10.70;9.18;;;;;;;10.85;55.07;100696.63;5052979;28;20099;-64
2022/09/30 02:22:09;;;;;;;14.15;9.55;;;;;;;10.87;55.14;100697.34;5052392;28;20094;-63
2022/09/30 02:24:42;;;;;;;12.43;9.60;;;;;;;10.88;55.05;100696.38;5053178;28;20403;-63
2022/09/30 02:27:15;;;;;;;11.80;9.10;;;;;;;10.89;54.83;100695.41;5052678;28;20053;-63
2022/09/30 02:29:49;;;;;;;11.95;9.38;;;;;;;10.89;55.04;100698.97;5052943;28;20093;-63
2022/09/30 02:32:26;;;;;;;11.75;9.20;;;;;;;10.88;55.07;100701.75;5051623;28;20545;-63
2022/09/30 02:35:04;;;;;;;16.00;11.07;;;;;;;10.86;54.83;100709.94;5052930;28;20071;-64
2022/09/30 02:37:35;;;;;;;11.23;9.82;;;;;;;10.82;55.03;100703.94;5052366;28;20061;-63
2022/09/30 02:40:28;;;;;;;11.20;9.90;;;;;;;10.80;55.24;100707.69;5052698;28;20041;-64
2022/09/30 02:42:54;;;;;;;11.32;10.00;;;;;;;10.80;54.95;100705.03;5025182;28;20050;-63
2022/09/30 02:45:23;;;;;;;12.45;10.55;;;;;;;10.78;54.92;100704.28;5032757;28;20049;-63
2022/09/30 02:48:13;;;;;;;14.95;10.23;;;;;;;10.77;55.00;100706.09;5032503;28;20051;-64
2022/09/30 02:50:47;;;;;;;12.25;10.15;;;;;;;10.78;54.92;100706.97;5034758;28;20146;-63
2022/09/30 02:53:21;;;;;;;15.82;10.82;;;;;;;10.77;55.11;100702.56;5052343;28;20449;-63
2022/09/30 02:56:19;;;;;;;14.45;10.75;;;;;;;10.75;54.83;100702.66;5052369;28;20097;-63
2022/09/30 02:58:48;;;;;;;11.30;9.65;;;;;;;10.72;54.81;100700.22;5052123;28;20102;-63
2022/09/30 03:01:16;;;;;;;12.10;10.02;;;;;;;10.70;54.99;100701.31;5051402;28;20069;-64
2022/09/30 03:03:56;;;;;;;10.85;9.25;;;;;;;10.64;55.06;100697.25;5052116;28;20044;-64
2022/09/30 03:06:23;;;;;;;9.75;8.55;;;;;;;10.61;54.98;100696.59;5051681;28;20045;-64
2022/09/30 03:08:52;;;;;;;9.82;8.30;;;;;;;10.58;55.06;100697.69;5051991;28;20040;-64
2022/09/30 03:11:24;;;;;;;10.70;7.60;;;;;;;10.55;55.09;100697.91;5051378;28;20029;-63
2022/09/30 03:14:31;;;;;;;9.85;7.95;;;;;;;10.52;55.05;100699.97;5051978;28;20079;-64
2022/09/30 03:17:25;;;;;;;9.75;7.85;;;;;;;10.48;55.15;100705.56;5051885;28;20495;-63
2022/09/30 03:20:10;;;;;;;9.32;8.38;;;;;;;10.46;55.06;100703.97;5051496;28;20515;-63
2022/09/30 03:23:07;;;;;;;10.43;8.35;;;;;;;10.44;54.98;100711.28;5051710;28;20044;-63
2022/09/30 03:25:51;;;;;;;12.00;8.98;;;;;;;10.40;54.91;100707.94;5051888;28;20045;-64
2022/09/30 03:28:37;;;;;;;11.68;9.35;;;;;;;10.36;55.29;100719.00;5051558;28;20098;-64
2022/09/30 03:31:07;;;;;;;10.45;8.93;;;;;;;10.36;55.23;100714.47;5051015;28;20106;-63
2022/09/30 03:33:49;;;;;;;11.38;9.13;;;;;;;10.37;55.21;100721.56;5051354;28;20041;-62
2022/09/30 03:36:53;;;;;;;10.93;9.82;;;;;;;10.35;55.20;100730.69;5051873;28;20099;-63
2022/09/30 03:40:09;;;;;;;14.65;11.80;;;;;;;10.35;55.53;100738.75;5047469;28;20041;-63
2022/09/30 03:42:44;;;;;;;16.55;12.32;;;;;;;10.32;55.37;100745.19;5051538;28;20045;-63
2022/09/30 03:45:21;;;;;;;;;;;;;;;10.27;55.45;100735.75;5052042;28;20098;-63
2022/09/30 03:47:52;;;;;;;19.15;12.00;;;;;;;10.29;55.16;100742.72;5051516;28;19920;-63
2022/09/30 03:50:22;;;;;;;15.65;12.43;;;;;;;10.29;55.40;100739.19;5050982;28;20053;-64
2022/09/30 03:52:49;;;;;;;16.20;12.23;;;;;;;10.28;55.38;100732.97;5051097;28;20090;-63
2022/09/30 03:55:18;;;;;;;14.25;11.93;;;;;;;10.27;55.32;100725.88;5051175;28;20049;-63
2022/09/30 03:57:44;;;;;;;14.63;12.18;;;;;;;10.26;55.38;100726.84;5051335;28;20041;-63
2022/09/30 04:00:12;;;;;;;14.43;11.60;;;;;;;10.28;55.62;100732.09;5051266;28;20053;-63
2022/09/30 04:02:39;;;;;;;13.40;11.93;;;;;;;10.29;55.58;100729.31;5050741;28;20469;-64
2022/09/30 04:05:07;;;;;;;15.25;12.50;;;;;;;10.30;55.73;100735.53;5051359;28;20048;-63
2022/09/30 04:07:33;;;;;;;17.52;13.07;;;;;;;10.30;55.51;100732.84;5050447;28;20515;-63
2022/09/30 04:10:00;;;;;;;13.77;11.68;;;;;;;10.31;55.83;100729.19;5051117;28;20067;-62
2022/09/30 04:12:26;;;;;;;14.85;12.60;;;;;;;10.31;55.82;100737.25;5050780;28;20041;-63
2022/09/30 04:14:54;;;;;;;15.65;13.52;;;;;;;10.30;55.88;100740.91;5051162;28;20438;-63
2022/09/30 04:17:21;;;;;;;17.42;13.55;;;;;;;10.31;55.61;100753.34;5050406;28;20053;-63
2022/09/30 04:19:49;;;;;;;18.80;15.00;;;;;;;10.32;55.64;100763.97;5050953;28;20037;-63
2022/09/30 04:22:15;;;;;;;18.27;15.38;;;;;;;10.34;55.92;100783.53;5050392;28;20041;-63
2022/09/30 04:24:42;;;;;;;15.95;13.90;;;;;;;10.34;55.92;100779.97;5051019;28;20053;-63
2022/09/30 04:27:09;;;;;;;18.73;13.80;;;;;;;10.31;55.98;100781.06;5050659;28;20095;-64
2022/09/30 04:29:36;;;;;;;19.13;14.60;;;;;;;10.30;55.76;100784.72;5050872;28;20215;-63
2022/09/30 04:32:02;;;;;;;26.35;15.30;;;;;;;10.28;55.91;100785.78;5050512;28;20044;-63
2022/09/30 04:34:30;;;;;;;17.75;14.13;;;;;;;10.26;55.86;100791.25;5051264;28;20391;-62
2022/09/30 04:36:56;;;;;;;17.33;14.85;;;;;;;10.25;56.01;100799.41;5051184;28;20110;-63
2022/09/30 04:39:23;;;;;;;17.35;13.25;;;;;;;10.22;55.94;100796.94;5050309;28;20048;-63
2022/09/30 04:41:50;;;;;;;15.18;13.45;;;;;;;10.19;55.96;100793.47;5050459;28;20069;-63
2022/09/30 04:44:20;;;;;;;15.60;13.55;;;;;;;10.19;56.13;100796.16;5050897;28;20514;-65
2022/09/30 04:46:47;;;;;;;16.52;13.45;;;;;;;10.18;56.26;100797.13;5050498;28;20114;-63
2022/09/30 04:49:13;;;;;;;16.92;13.65;;;;;;;10.19;56.06;100801.53;5049816;28;20091;-64
2022/09/30 04:51:42;;;;;;;16.27;13.27;;;;;;;10.21;56.06;100803.28;5030558;28;20103;-63
2022/09/30 04:54:13;;;;;;;15.73;12.70;;;;;;;10.20;56.13;100802.44;5033934;28;20059;-63
2022/09/30 04:56:39;;;;;;;16.55;12.55;;;;;;;10.21;56.12;100808.66;5050769;28;20098;-64
2022/09/30 04:59:06;;;;;;;15.43;12.65;;;;;;;10.22;56.04;100808.53;5050528;28;20095;-64
2022/09/30 05:01:33;;;;;;;16.38;12.75;;;;;;;10.23;56.04;100810.25;5050823;28;20044;-64
2022/09/30 05:04:03;;;;;;;15.68;12.48;;;;;;;10.23;56.07;100814.78;5050314;28;20122;-64
2022/09/30 05:06:29;;;;;;;19.08;13.65;;;;;;;10.20;56.04;100818.53;5049800;28;20049;-63
2022/09/30 05:08:56;;;;;;;17.95;12.85;;;;;;;10.17;55.87;100829.44;5050612;28;20068;-63
2022/09/30 05:11:22;;;;;;;16.65;13.02;;;;;;;10.15;55.93;100829.56;5050323;28;20447;-63
2022/09/30 05:13:50;;;;;;;15.25;11.85;;;;;;;10.10;55.80;100834.38;5051426;28;20044;-63
2022/09/30 05:16:17;;;;;;;14.65;12.23;;;;;;;10.05;55.97;100831.16;5054013;28;20045;-63
2022/09/30 05:18:47;;;;;;;15.77;11.80;;;;;;;10.00;55.88;100830.63;5054467;28;20075;-63
2022/09/30 05:21:15;;;;;;;13.73;11.60;;;;;;;9.95;55.88;100830.06;5054390;28;20052;-63
2022/09/30 05:23:46;;;;;;;16.20;13.20;;;;;;;9.86;56.01;100831.56;5053867;28;20102;-65
2022/09/30 05:26:13;;;;;;;17.02;13.65;;;;;;;9.75;55.95;100828.75;5053821;28;20048;-64
2022/09/30 05:28:41;;;;;;;15.77;12.25;;;;;;;9.67;56.09;100835.59;5054082;28;20079;-63
2022/09/30 05:31:08;;;;;;;16.05;13.35;;;;;;;9.65;56.06;100837.50;5054111;28;20095;-63
2022/09/30 05:33:34;;;;;;;17.05;13.45;;;;;;;9.63;56.34;100834.91;5053596;28;20040;-64
2022/09/30 05:36:12;;;;;;;16.23;13.38;;;;;;;9.60;56.29;100843.16;5053707;28;20072;-63
2022/09/30 05:38:38;;;;;;;16.92;13.70;;;;;;;9.60;56.55;100835.13;5053887;28;20095;-63
2022/09/30 05:41:10;;;;;;;21.63;14.45;;;;;;;9.61;56.64;100834.16;5054022;28;20045;-63
2022/09/30 05:43:41;;;;;;;19.13;14.43;;;;;;;9.63;56.58;100828.69;5053668;28;20141;-64
2022/09/30 05:46:08;;;;;;;20.63;14.00;;;;;;;9.64;56.66;100836.63;5053550;28;20053;-63
2022/09/30 05:48:34;;;;;;;18.05;13.60;;;;;;;9.65;56.82;100837.50;5053865;28;20049;-63
2022/09/30 05:51:01;;;;;;;18.80;13.77;;;;;;;9.68;56.81;100840.00;5053477;28;20033;-63
2022/09/30 05:53:30;;;;;;;18.33;14.02;;;;;;;9.73;56.74;100854.81;5053134;28;20064;-64
2022/09/30 05:55:58;;;;;;;16.95;13.30;;;;;;;9.80;56.81;100852.59;5053901;28;20098;-63
2022/09/30 05:58:26;;;;;;;16.65;13.63;;;;;;;9.84;56.97;100857.63;5053693;28;20045;-63
2022/09/30 06:00:52;;;;;;;17.88;13.82;;;;;;;9.84;56.96;100862.13;5053655;28;20091;-63
2022/09/30 06:03:19;;;;;;;18.73;13.15;;;;;;;9.84;56.80;100867.50;5052948;28;20045;-64
2022/09/30 06:05:46;;;;;;;19.52;14.38;;;;;;;9.84;56.88;100868.38;5053464;28;20029;-63
2022/09/30 06:08:13;;;;;;;19.55;14.50;;;;;;;9.85;56.86;100866.53;5053214;28;20048;-63
2022/09/30 06:10:42;;;;;;;18.45;14.15;;;;;;;9.87;56.97;100872.66;5052667;28;20049;-64
2022/09/30 06:13:09;;;;;;;19.83;14.30;;;;;;;9.86;57.08;100879.00;5052819;28;20040;-63
2022/09/30 06:15:37;;;;;;;20.67;14.57;;;;;;;9.86;57.13;100885.22;5052019;28;20080;-64
2022/09/30 06:18:04;;;;;;;14.77;12.55;;;;;;;9.87;57.17;100891.44;5053013;28;20442;-63
2022/09/30 06:20:31;;;;;;;18.02;13.85;;;;;;;9.89;57.38;100889.50;5052552;28;20075;-64
2022/09/30 06:23:01;;;;;;;19.88;13.52;;;;;;;9.90;57.40;100885.88;5051541;28;20053;-64
2022/09/30 06:25:29;;;;;;;16.52;12.70;;;;;;;9.92;57.43;100885.75;5052684;28;20049;-64
2022/09/30 06:27:56;;;;;;;26.65;15.23;;;;;;;9.95;57.54;100893.59;5052913;28;20469;-63
2022/09/30 06:30:23;;;;;;;19.42;14.65;;;;;;;10.00;57.56;100899.50;5052671;28;20045;-63
2022/09/30 06:32:52;;;;;;;21.75;15.60;;;;;;;10.04;57.39;100903.72;5052181;28;20045;-63
2022/09/30 06:35:22;;;;;;;17.85;14.45;;;;;;;10.06;57.46;100904.47;5052880;28;20044;-63
2022/09/30 06:37:50;;;;;;;21.55;15.25;;;;;;;10.10;57.79;100904.16;5052589;28;20111;-63
2022/09/30 06:40:19;;;;;;;21.15;15.77;;;;;;;10.14;57.80;100905.66;5052197;28;20091;-63
2022/09/30 06:42:48;;;;;;;19.20;15.13;;;;;;;10.18;57.75;100909.84;5052194;28;20052;-63
2022/09/30 06:45:20;;;;;;;21.77;16.15;;;;;;;10.24;57.90;100905.06;5052656;28;20051;-63
2022/09/30 06:47:59;;;;;;;24.00;16.92;;;;;;;10.28;57.88;100910.13;5052699;28;20053;-63
2022/09/30 06:50:27;;;;;;;24.98;18.48;;;;;;;10.34;58.11;100903.47;5052011;28;20082;-63
2022/09/30 06:53:07;;;;;;;25.73;17.95;;;;;;;10.41;58.23;100899.41;5051985;28;20490;-63
2022/09/30 06:55:37;;;;;;;25.75;17.85;;;;;;;10.50;58.22;100896.94;5052576;28;20086;-63
2022/09/30 06:58:10;;;;;;;25.50;18.90;;;;;;;10.65;58.61;100907.59;5050682;28;20048;-63
2022/09/30 07:00:36;;;;;;;21.67;17.58;;;;;;;10.80;58.72;100901.97;5051160;28;20560;-64
2022/09/30 07:03:10;;;;;;;20.67;16.75;;;;;;;10.97;59.00;100903.47;5052001;28;20041;-65
2022/09/30 07:05:36;;;;;;;20.95;16.55;;;;;;;11.16;59.25;100896.78;5052222;28;20522;-65
2022/09/30 07:08:03;;;;;;;20.55;15.98;;;;;;;11.34;59.23;100903.50;5051703;28;20040;-66
2022/09/30 07:10:29;;;;;;;28.55;17.52;;;;;;;11.55;59.51;100895.69;5050564;28;20469;-66
2022/09/30 07:12:56;;;;;;;20.38;16.23;;;;;;;11.75;59.51;100906.66;5050635;28;20044;-66
2022/09/30 07:15:22;;;;;;;17.92;15.50;;;;;;;11.98;59.57;100906.84;5052179;28;20142;-65
2022/09/30 07:17:55;;;;;;;23.60;16.73;;;;;;;12.18;59.42;100903.47;5051324;28;20037;-67
2022/09/30 07:20:23;;;;;;;20.23;16.00;;;;;;;12.39;59.25;100907.19;5052032;28;20057;-65
2022/09/30 07:22:50;;;;;;;21.38;16.10;;;;;;;12.58;59.22;100905.75;5051386;28;20106;-66
2022/09/30 07:25:18;;;;;;;19.67;16.50;;;;;;;12.80;58.86;100904.94;5052466;28;20095;-66
2022/09/30 07:27:45;;;;;;;19.90;16.33;;;;;;;13.00;59.08;100901.53;5051485;28;20136;-66
2022/09/30 07:30:12;;;;;;;24.75;17.83;;;;;;;13.18;58.57;100893.81;5051602;28;20045;-66
2022/09/30 07:32:52;;;;;;;26.98;16.65;;;;;;;13.35;58.68;100896.84;5051399;28;20052;-64
2022/09/30 07:35:19;;;;;;;20.35;16.77;;;;;;;13.51;58.62;100899.19;5051719;28;20033;-64
2022/09/30 07:37:45;;;;;;;24.42;18.45;;;;;;;13.68;58.69;100903.19;5050486;28;20119;-64
2022/09/30 07:40:11;;;;;;;21.58;17.55;;;;;;;13.82;58.22;100905.59;5051373;28;20071;-63
2022/09/30 07:42:44;;;;;;;22.58;17.45;;;;;;;13.98;58.36;100903.31;5051462;28;20041;-64
2022/09/30 07:45:15;;;;;;;22.85;16.58;;;;;;;14.09;58.16;100896.13;5051801;28;20047;-63
2022/09/30 07:47:42;;;;;;;24.85;18.55;;;;;;;14.26;57.87;100903.69;5051507;28;20037;-64
2022/09/30 07:50:09;;;;;;;27.23;17.83;;;;;;;14.41;58.26;100898.81;5051611;28;20048;-64
2022/09/30 07:52:36;;;;;;;22.48;19.52;;;;;;;14.58;58.00;100899.09;5051378;28;20499;-63
2022/09/30 07:55:04;;;;;;;22.00;18.65;;;;;;;14.81;57.73;100913.31;5051542;28;20068;-64
2022/09/30 07:57:30;;;;;;;24.30;19.73;;;;;;;15.00;57.83;100912.56;5051339;28;20106;-64
2022/09/30 07:59:57;;;;;;;20.92;18.73;;;;;;;15.20;57.66;100910.78;5051207;28;20064;-64
2022/09/30 08:02:23;;;;;;;25.73;19.88;;;;;;;15.41;57.67;100914.28;5051074;28;20040;-64
2022/09/30 08:04:50;;;;;;;23.65;20.05;;;;;;;15.59;57.10;100906.38;5051215;28;20049;-64
2022/09/30 08:07:17;;;;;;;26.10;19.92;;;;;;;15.74;56.95;100906.84;5049922;28;20118;-64
2022/09/30 08:09:44;;;;;;;22.20;19.80;;;;;;;15.88;56.96;100907.28;5051310;28;20557;-65
2022/09/30 08:12:10;;;;;;;25.02;21.17;;;;;;;15.99;56.34;100908.16;5050318;28;20037;-65
2022/09/30 08:14:43;;;;;;;23.98;20.55;;;;;;;16.10;56.59;100916.97;5051143;28;20102;-64
2022/09/30 08:17:09;;;;;;;28.10;20.58;;;;;;;16.19;56.42;100916.13;5050760;28;20052;-64
2022/09/30 08:19:37;;;;;;;30.02;20.85;;;;;;;16.32;56.48;100912.25;5050060;28;20442;-64
2022/09/30 08:22:05;;;;;;;25.05;21.42;;;;;;;16.42;56.03;100911.28;5049983;28;20100;-64
2022/09/30 08:24:35;;;;;;;26.02;21.10;;;;;;;16.55;56.34;100901.97;5051452;28;20506;-64
2022/09/30 08:27:02;;;;;;;25.38;21.50;;;;;;;16.63;56.10;100904.81;5050710;28;20107;-64
2022/09/30 08:29:28;;;;;;;26.17;21.48;;;;;;;16.67;56.06;100906.25;5050900;28;20067;-64
2022/09/30 08:32:15;;;;;;;25.95;22.10;;;;;;;16.78;55.94;100901.50;5049599;28;20107;-66
2022/09/30 08:34:43;;;;;;;28.52;22.55;;;;;;;16.87;55.44;100910.63;5049536;28;20491;-66
2022/09/30 08:37:10;;;;;;;27.38;22.95;;;;;;;16.99;55.62;100909.44;5050933;28;20056;-67
2022/09/30 08:39:37;;;;;;;26.45;22.13;;;;;;;17.12;55.36;100903.69;5050870;28;20086;-66
2022/09/30 08:42:16;;;;;;;25.67;22.45;;;;;;;17.24;55.40;100907.06;5050714;28;20106;-66
2022/09/30 08:45:22;;;;;;;27.50;23.70;;;;;;;17.34;55.20;100902.44;5050600;28;20084;-66
2022/09/30 08:48:00;;;;;;;26.85;22.60;;;;;;;17.45;55.47;100894.94;5050920;28;20414;-67
2022/09/30 08:50:45;;;;;;;27.67;23.58;;;;;;;17.56;55.55;100896.59;5054464;28;20128;-66
2022/09/30 08:53:22;;;;;;;26.20;22.67;;;;;;;17.66;55.02;100896.53;5053630;28;20114;-66
2022/09/30 08:55:50;;;;;;;28.33;23.05;;;;;;;17.77;55.20;100904.50;5054714;28;20098;-67
2022/09/30 08:58:27;;;;;;;25.10;21.42;;;;;;;17.84;54.85;100907.47;5054618;28;20045;-67
2022/09/30 09:01:01;;;;;;;25.42;21.02;;;;;;;17.94;55.07;100905.53;5054157;28;20049;-66
2022/09/30 09:03:30;;;;;;;26.15;21.60;;;;;;;18.07;54.66;100908.72;5054541;28;20041;-67
2022/09/30 09:06:21;;;;;;;27.73;21.25;;;;;;;18.23;54.96;100911.56;5054440;28;20065;-67
2022/09/30 09:09:02;;;;;;;24.75;21.92;;;;;;;18.38;54.50;100914.59;5054411;28;20114;-66
2022/09/30 09:11:49;;;;;;;30.23;20.77;;;;;;;18.50;54.67;100913.31;5053492;28;20441;-65
2022/09/30 09:14:41;;;;;;;26.10;20.63;;;;;;;18.65;54.52;100905.50;5051374;28;20498;-67
2022/09/30 09:17:29;;;;;;;23.92;19.45;;;;;;;18.81;54.26;100900.16;5053685;28;20037;-66
2022/09/30 09:20:04;;;;;;;21.45;18.60;;;;;;;18.95;53.92;100899.56;5053666;28;20041;-67
2022/09/30 09:22:31;;;;;;;20.25;17.40;;;;;;;19.03;53.60;100899.59;5052335;28;20045;-67
2022/09/30 09:24:59;;;;;;;17.67;15.73;;;;;;;19.11;53.82;100897.94;5051813;28;20135;-67
2022/09/30 09:27:33;;;;;;;19.17;15.98;;;;;;;19.20;53.46;100902.41;5053698;28;20049;-67
2022/09/30 09:30:20;;;;;;;17.88;15.82;;;;;;;19.29;53.73;100901.41;5053389;28;20083;-67
2022/09/30 09:32:56;;;;;;;17.98;14.45;;;;;;;19.36;53.50;100900.63;5053601;28;20075;-67
2022/09/30 09:35:32;;;;;;;17.63;15.65;;;;;;;19.46;53.44;100896.91;5053838;28;20450;-66
2022/09/30 09:38:27;;;;;;;16.70;14.52;;;;;;;19.58;53.20;100904.63;5053442;28;20115;-66
2022/09/30 09:41:03;;;;;;;13.05;11.55;;;;;;;19.71;52.72;100917.78;5053170;28;20510;-68
2022/09/30 09:44:14;;;;;;;14.60;12.75;;;;;;;19.79;52.42;100916.94;5053462;28;20049;-67
2022/09/30 09:46:49;;;;;;;15.82;11.98;;;;;;;19.87;52.33;100909.66;5052300;28;20048;-67
2022/09/30 09:49:22;;;;;;;15.75;11.95;;;;;;;19.92;52.10;100911.88;5053262;28;20044;-68
2022/09/30 09:52:11;;;;;;;13.70;11.00;;;;;;;19.98;51.85;100920.22;5053054;28;20045;-67
2022/09/30 09:54:51;;;;;;;13.55;11.55;;;;;;;20.05;51.56;100925.00;5053396;28;20079;-71
2022/09/30 09:57:23;;;;;;;15.13;10.88;;;;;;;20.11;51.54;100925.22;5053335;28;20106;-67
2022/09/30 10:03:08;;;;;;;15.95;12.13;;;;;;;20.23;51.10;100925.72;5052895;28;20049;-67
2022/09/30 10:05:38;;;;;;;15.65;12.20;;;;;;;20.25;50.88;100919.09;5053239;28;20099;-67
2022/09/30 10:08:11;;;;;;;16.33;12.77;;;;;;;20.31;50.85;100917.56;5052579;28;20491;-68
2022/09/30 10:10:50;;;;;;;16.08;12.65;;;;;;;20.41;51.28;100918.25;5050259;28;20120;-67
2022/09/30 10:13:30;;;;;;;16.73;13.57;;;;;;;20.54;51.09;100906.81;5051457;28;20049;-68
2022/09/30 10:16:00;;;;;;;15.45;13.23;;;;;;;20.64;50.90;100918.41;5053060;28;20524;-68
2022/09/30 10:18:35;;;;;;;17.05;13.45;;;;;;;20.77;50.91;100915.16;5052257;28;20120;-67
2022/09/30 10:21:08;;;;;;;15.30;12.75;;;;;;;20.89;50.59;100906.44;5052658;28;20033;-68
2022/09/30 10:23:41;;;;;;;18.98;12.90;;;;;;;21.00;50.32;100901.66;5052491;28;20578;-68
2022/09/30 10:26:13;;;;;;;14.55;11.10;;;;;;;21.10;50.18;100905.03;5050975;28;20049;-68
2022/09/30 10:28:50;;;;;;;11.70;10.25;;;;;;;21.20;50.11;100898.34;5052324;28;20519;-68
2022/09/30 10:31:20;;;;;;;13.13;11.00;;;;;;;21.34;49.96;100904.97;5052468;28;20094;-68
2022/09/30 10:34:32;;;;;;;11.90;9.98;;;;;;;21.43;49.25;100906.63;5052528;28;20076;-68
2022/09/30 10:37:06;;;;;;;13.02;10.20;;;;;;;21.44;49.03;100902.88;5052232;28;20033;-67
2022/09/30 10:39:35;;;;;;;13.73;10.17;;;;;;;21.48;48.96;100900.63;5052286;28;20395;-68
2022/09/30 10:42:22;;;;;;;14.60;11.30;;;;;;;21.53;48.61;100898.22;5052162;28;20052;-68
2022/09/30 10:45:08;;;;;;;13.10;10.68;;;;;;;21.59;48.53;100897.53;5052717;28;20492;-68
2022/09/30 10:47:43;;;;;;;14.20;11.00;;;;;;;21.66;48.46;100897.66;5051795;28;20052;-67
2022/09/30 10:50:15;;;;;;;16.67;11.88;;;;;;;21.79;48.64;100896.03;5052263;28;20045;-68
2022/09/30 10:52:53;;;;;;;14.35;11.70;;;;;;;21.87;48.50;100898.72;5051883;28;20052;-68
2022/09/30 10:55:21;;;;;;;16.05;12.82;;;;;;;21.96;48.47;100898.66;5052283;28;20106;-68
2022/09/30 10:57:50;;;;;;;14.35;12.10;;;;;;;22.05;48.51;100903.06;5049914;28;20502;-67
2022/09/30 11:00:20;;;;;;;13.25;11.85;;;;;;;22.12;48.23;100904.88;5051978;28;20060;-68
2022/09/30 11:03:48;;;;;;;14.70;11.82;;;;;;;22.22;47.66;100904.63;5051835;28;20053;-68
2022/09/30 11:06:15;;;;;;;15.98;12.70;;;;;;;22.33;47.51;100906.13;5011440;28;20153;-68
2022/09/30 11:09:02;;;;;;;16.25;13.35;;;;;;;22.38;47.33;100904.53;5028210;28;20091;-68
2022/09/30 11:11:39;;;;;;;14.98;12.73;;;;;;;22.51;47.53;100904.75;5043929;28;20099;-68
2022/09/30 11:14:09;;;;;;;13.27;11.73;;;;;;;22.59;47.69;100905.72;5051053;28;20048;-68
2022/09/30 11:17:07;;;;;;;14.40;12.40;;;;;;;22.65;47.20;100899.50;5051603;28;20461;-68
2022/09/30 11:19:51;;;;;;;11.73;10.02;;;;;;;22.78;47.00;100903.28;5051126;28;20102;-68
2022/09/30 11:22:42;;;;;;;10.35;9.25;;;;;;;22.89;46.85;100896.53;5049663;28;20041;-68
2022/09/30 11:25:14;;;;;;;11.18;8.75;;;;;;;22.94;46.57;100898.72;5031840;28;20057;-68
2022/09/30 11:28:18;;;;;;;9.23;7.82;;;;;;;22.95;46.44;100901.25;5042321;28;20044;-68
2022/09/30 11:31:21;;;;;;;11.90;7.32;;;;;;;22.92;46.27;100898.03;5031960;28;20045;-68
2022/09/30 11:34:08;;;;;;;8.15;6.55;;;;;;;22.85;45.83;100886.16;5039766;28;20563;-68
2022/09/30 11:36:57;;;;;;;7.60;5.95;;;;;;;22.74;45.93;100884.69;5051573;28;20499;-67
2022/09/30 11:39:48;;;;;;;7.88;5.90;;;;;;;22.76;46.42;100883.47;5031232;28;20478;-68
2022/09/30 11:42:14;;;;;;;7.40;5.45;;;;;;;22.89;46.28;100884.72;5045494;28;20372;-70
2022/09/30 11:44:44;;;;;;;6.63;4.97;;;;;;;22.98;45.82;100881.72;5050245;28;20139;-72
2022/09/30 11:47:30;;;;;;;5.43;4.35;;;;;;;23.04;45.67;100880.97;5051593;28;20095;-73
2022/09/30 11:50:18;;;;;;;5.07;4.03;;;;;;;23.23;45.92;100873.22;5051010;28;20107;-73
2022/09/30 11:52:51;;;;;;;6.00;4.30;;;;;;;23.39;45.96;100864.78;5051117;28;20048;-73